createdAt,value
2018-07-04T00:00:03.627Z,98264.80
2018-07-04T00:02:43.215Z,98265.98
2018-07-04T00:05:22.826Z,98269.23
2018-07-04T00:08:02.473Z,98269.95
2018-07-04T00:10:42.055Z,98268.97
2018-07-04T00:13:21.713Z,98272.13
2018-07-04T00:16:01.348Z,98271.28
2018-07-04T00:18:40.863Z,98276.39
2018-07-04T00:21:20.463Z,98276.30
2018-07-04T00:24:00.015Z,98277.14
2018-07-04T00:26:39.616Z,98283.91
2018-07-04T00:29:19.347Z,98284.88
2018-07-04T00:31:59.020Z,98284.75
2018-07-04T00:34:38.659Z,98282.52
2018-07-04T00:37:18.231Z,98288.94
2018-07-04T00:39:57.907Z,98281.25
2018-07-04T00:42:37.538Z,98288.66
2018-07-04T00:45:17.194Z,98289.14
2018-07-04T00:47:56.887Z,98283.97
2018-07-04T00:50:36.463Z,98281.86
2018-07-04T00:53:16.064Z,98282.43
2018-07-04T00:55:55.823Z,98282.01
2018-07-04T00:58:35.575Z,98277.92
2018-07-04T01:01:15.250Z,98282.02
2018-07-04T01:03:54.828Z,98273.19
2018-07-04T01:06:34.465Z,98270.99
2018-07-04T01:09:14.082Z,98273.86
2018-07-04T01:11:53.843Z,98279.27
2018-07-04T01:14:33.479Z,98275.34
2018-07-04T01:17:13.160Z,98279.02
2018-07-04T01:19:52.660Z,98277.69
2018-07-04T01:22:32.418Z,98275.41
2018-07-04T01:25:12.037Z,98272.06
2018-07-04T01:27:51.695Z,98269.48
2018-07-04T01:30:31.356Z,98268.25
2018-07-04T01:33:10.908Z,98265.55
2018-07-04T01:35:50.620Z,98262.58
2018-07-04T01:38:30.231Z,98259.77
2018-07-04T01:41:09.795Z,98257.95
2018-07-04T01:43:49.792Z,98255.55
2018-07-04T01:46:29.464Z,98254.25
2018-07-04T01:49:09.103Z,98259.53
2018-07-04T01:51:48.678Z,98252.22
2018-07-04T01:54:28.220Z,98248.58
2018-07-04T01:57:07.811Z,98255.97
2018-07-04T01:59:47.447Z,98249.52
2018-07-04T02:02:27.106Z,98252.41
2018-07-04T02:05:06.743Z,98250.51
2018-07-04T02:07:46.291Z,98245.21
2018-07-04T02:10:26.046Z,98250.31
2018-07-04T02:13:05.483Z,98252.89
2018-07-04T02:15:45.148Z,98251.64
2018-07-04T02:18:25.160Z,98253.58
2018-07-04T02:21:04.623Z,98252.47
2018-07-04T02:23:44.275Z,98254.30
2018-07-04T02:26:23.918Z,98253.97
2018-07-04T02:29:03.522Z,98258.83
2018-07-04T02:31:43.183Z,98258.39
2018-07-04T02:34:26.722Z,98259.50
2018-07-04T02:37:07.924Z,98251.20
2018-07-04T02:39:47.739Z,98253.66
2018-07-04T02:42:27.324Z,98249.95
2018-07-04T02:45:07.081Z,98259.03
2018-07-04T02:47:46.602Z,98257.62
2018-07-04T02:50:26.203Z,98251.27
2018-07-04T02:53:05.847Z,98245.39
2018-07-04T02:55:45.503Z,98253.73
2018-07-04T02:58:25.156Z,98253.92
2018-07-04T03:01:04.744Z,98256.06
2018-07-04T03:03:44.548Z,98254.48
2018-07-04T03:06:24.004Z,98258.80
2018-07-04T03:09:04.436Z,98250.55
2018-07-04T03:11:44.010Z,98256.02
2018-07-04T03:14:23.680Z,98248.29
2018-07-04T03:17:03.257Z,98251.36
2018-07-04T03:19:42.790Z,98252.38
2018-07-04T03:22:22.280Z,98257.11
2018-07-04T03:25:01.813Z,98261.09
2018-07-04T03:27:41.267Z,98258.17
2018-07-04T03:30:21.146Z,98267.88
2018-07-04T03:33:00.607Z,98264.31
2018-07-04T03:35:40.163Z,98265.53
2018-07-04T03:38:21.620Z,98270.27
2018-07-04T03:41:02.742Z,98275.02
2018-07-04T03:43:42.488Z,98272.41
2018-07-04T03:46:22.111Z,98274.39
2018-07-04T03:49:01.631Z,98279.52
2018-07-04T03:51:41.307Z,98278.67
2018-07-04T03:54:20.984Z,98284.81
2018-07-04T03:57:00.638Z,98286.47
2018-07-04T03:59:40.276Z,98293.63
2018-07-04T04:02:19.886Z,98290.28
2018-07-04T04:04:59.413Z,98286.83
2018-07-04T04:07:39.047Z,98289.63
2018-07-04T04:10:18.767Z,98295.81
2018-07-04T04:12:58.446Z,98298.14
2018-07-04T04:15:38.394Z,98297.22
2018-07-04T04:18:18.023Z,98301.20
2018-07-04T04:20:57.599Z,98295.60
2018-07-04T04:23:37.192Z,98293.52
2018-07-04T04:26:16.794Z,98294.36
2018-07-04T04:28:56.471Z,98300.58
2018-07-04T04:31:36.080Z,98296.34
2018-07-04T04:34:15.696Z,98303.75
2018-07-04T04:36:55.225Z,98295.44
2018-07-04T04:39:34.932Z,98302.75
2018-07-04T04:42:14.413Z,98299.28
2018-07-04T04:44:54.052Z,98301.97
2018-07-04T04:47:33.601Z,98303.80
2018-07-04T04:50:13.261Z,98300.84
2018-07-04T04:52:52.801Z,98295.56
2018-07-04T04:55:32.386Z,98289.16
2018-07-04T04:58:12.043Z,98289.95
2018-07-04T05:00:51.695Z,98294.23
2018-07-04T05:03:31.294Z,98300.48
2018-07-04T05:06:10.813Z,98302.64
2018-07-04T05:08:50.454Z,98307.16
2018-07-04T05:11:30.115Z,98310.30
2018-07-04T05:14:10.352Z,98315.02
2018-07-04T05:16:49.833Z,98312.73
2018-07-04T05:19:29.472Z,98311.95
2018-07-04T05:22:09.129Z,98313.28
2018-07-04T05:24:48.607Z,98310.45
2018-07-04T05:27:28.163Z,98316.16
2018-07-04T05:30:07.736Z,98311.77
2018-07-04T05:32:47.307Z,98313.55
2018-07-04T05:35:26.853Z,98316.37
2018-07-04T05:38:06.416Z,98312.44
2018-07-04T05:40:46.044Z,98315.77
2018-07-04T05:43:25.722Z,98313.38
2018-07-04T05:46:05.361Z,98312.73
2018-07-04T05:48:44.959Z,98318.55
2018-07-04T05:51:24.575Z,98323.44
2018-07-04T05:54:04.191Z,98320.12
2018-07-04T05:56:43.819Z,98315.39
2018-07-04T05:59:23.533Z,98314.30
2018-07-04T06:02:02.985Z,98317.19
2018-07-04T06:04:42.507Z,98314.91
2018-07-04T06:07:22.070Z,98315.53
2018-07-04T06:10:01.705Z,98318.14
2018-07-04T06:12:41.375Z,98317.71
2018-07-04T06:15:21.031Z,98320.70
2018-07-04T06:18:00.623Z,98320.59
2018-07-04T06:20:40.550Z,98315.96
2018-07-04T06:23:20.163Z,98321.00
2018-07-04T06:25:59.680Z,98310.63
2018-07-04T06:28:39.318Z,98309.55
2018-07-04T06:31:19.017Z,98313.70
2018-07-04T06:33:58.578Z,98305.52
2018-07-04T06:36:38.217Z,98312.68
2018-07-04T06:39:05.994Z,98307.44
2018-07-04T06:41:33.188Z,98304.44
2018-07-04T06:44:00.436Z,98303.77
2018-07-04T06:46:27.674Z,98300.80
2018-07-04T06:48:54.957Z,98296.84
2018-07-04T06:51:22.187Z,98293.68
2018-07-04T06:53:49.434Z,98299.86
2018-07-04T06:56:16.664Z,98294.30
2018-07-04T06:58:43.897Z,98296.18
2018-07-04T07:01:11.134Z,98294.12
2018-07-04T07:03:50.798Z,98297.52
2018-07-04T07:06:30.401Z,98291.31
2018-07-04T07:09:10.065Z,98291.59
2018-07-04T07:11:49.687Z,98298.37
2018-07-04T07:14:29.387Z,98293.09
2018-07-04T07:17:08.971Z,98300.73
2018-07-04T07:19:48.623Z,98291.83
2018-07-04T07:22:28.291Z,98289.53
2018-07-04T07:25:07.911Z,98287.34
2018-07-04T07:27:47.536Z,98283.61
2018-07-04T07:30:27.140Z,98276.34
2018-07-04T07:33:06.769Z,98280.07
2018-07-04T07:35:46.492Z,98277.70
2018-07-04T07:38:26.072Z,98273.88
2018-07-04T07:41:05.725Z,98275.55
2018-07-04T07:47:27.345Z,98283.05
2018-07-04T07:50:06.982Z,98274.94
2018-07-04T07:52:46.630Z,98275.57
2018-07-04T07:55:26.275Z,98280.77
2018-07-04T07:58:05.895Z,98271.64
2018-07-04T08:00:45.556Z,98275.84
2018-07-04T08:03:25.176Z,98270.09
2018-07-04T08:06:04.808Z,98271.19
2018-07-04T08:08:44.426Z,98269.79
2018-07-04T08:11:23.943Z,98272.85
2018-07-04T08:14:03.567Z,98271.81
2018-07-04T08:16:43.263Z,98277.61
2018-07-04T08:19:22.969Z,98272.16
2018-07-04T08:22:02.510Z,98272.88
2018-07-04T08:24:42.127Z,98274.67
2018-07-04T08:27:21.803Z,98269.96
2018-07-04T08:30:01.415Z,98267.81
2018-07-04T08:32:41.045Z,98269.67
2018-07-04T08:35:20.564Z,98264.60
2018-07-04T08:38:00.190Z,98270.59
2018-07-04T08:40:39.875Z,98280.14
2018-07-04T08:43:19.498Z,98272.84
2018-07-04T08:45:59.125Z,98275.84
2018-07-04T08:48:38.777Z,98268.41
2018-07-04T08:51:18.265Z,98266.69
2018-07-04T08:53:57.967Z,98272.34
2018-07-04T08:56:37.540Z,98269.04
2018-07-04T08:59:17.188Z,98268.25
2018-07-04T09:01:56.680Z,98269.88
2018-07-04T09:04:36.263Z,98272.98
2018-07-04T09:07:16.044Z,98265.05
2018-07-04T09:09:55.535Z,98264.42
2018-07-04T09:12:35.187Z,98261.09
2018-07-04T09:15:14.823Z,98268.98
2018-07-04T09:17:54.407Z,98256.51
2018-07-04T09:20:35.076Z,98258.67
2018-07-04T09:23:14.707Z,98255.75
2018-07-04T09:25:54.223Z,98257.50
2018-07-04T09:28:33.865Z,98259.59
2018-07-04T09:31:13.710Z,98259.44
2018-07-04T09:33:53.322Z,98259.41
2018-07-04T09:36:33.051Z,98265.38
2018-07-04T09:39:12.659Z,98254.80
2018-07-04T09:41:52.499Z,98257.21
2018-07-04T09:44:31.876Z,98249.95
2018-07-04T09:47:11.446Z,98250.56
2018-07-04T09:49:51.120Z,98254.81
2018-07-04T09:52:30.600Z,98252.01
2018-07-04T09:55:10.558Z,98249.75
2018-07-04T09:57:50.276Z,98250.53
2018-07-04T10:00:30.709Z,98243.20
2018-07-04T10:03:11.408Z,98248.17
2018-07-04T10:05:51.129Z,98243.63
2018-07-04T10:08:30.702Z,98240.92
2018-07-04T10:11:10.766Z,98236.53
2018-07-04T10:13:50.279Z,98234.82
2018-07-04T10:16:29.952Z,98235.27
2018-07-04T10:19:09.543Z,98238.27
2018-07-04T10:23:18.236Z,98236.47
2018-07-04T10:25:57.922Z,98223.73
2018-07-04T10:28:37.904Z,98224.71
2018-07-04T10:31:17.512Z,98225.02
2018-07-04T10:33:56.978Z,98215.47
2018-07-04T10:36:36.513Z,98229.38
2018-07-04T10:39:16.042Z,98219.62
2018-07-04T10:41:55.599Z,98224.19
2018-07-04T10:44:35.725Z,98214.95
2018-07-04T10:47:15.332Z,98214.91
2018-07-04T10:49:54.841Z,98211.36
2018-07-04T10:52:34.340Z,98204.55
2018-07-04T10:55:13.946Z,98209.14
2018-07-04T10:57:53.572Z,98198.06
2018-07-04T11:00:33.023Z,98199.55
2018-07-04T11:03:12.595Z,98200.60
2018-07-04T11:05:52.534Z,98200.22
2018-07-04T11:08:32.289Z,98207.27
2018-07-04T11:11:11.906Z,98205.61
2018-07-04T11:13:51.731Z,98200.41
2018-07-04T11:16:31.272Z,98194.27
2018-07-04T11:19:10.893Z,98192.92
2018-07-04T11:21:50.630Z,98188.11
2018-07-04T11:24:30.265Z,98185.06
2018-07-04T11:27:10.199Z,98176.16
2018-07-04T11:29:49.899Z,98174.45
2018-07-04T11:32:29.785Z,98181.58
2018-07-04T11:35:09.771Z,98173.06
2018-07-04T11:37:49.188Z,98176.02
2018-07-04T11:40:28.831Z,98175.00
2018-07-04T11:43:08.372Z,98169.59
2018-07-04T11:45:48.019Z,98172.27
2018-07-04T11:48:15.260Z,98173.63
2018-07-04T11:50:42.475Z,98171.95
2018-07-04T11:53:09.748Z,98161.98
2018-07-04T11:55:36.943Z,98163.05
2018-07-04T11:58:04.190Z,98152.59
2018-07-04T12:00:31.422Z,98152.52
2018-07-04T12:02:58.666Z,98151.17
2018-07-04T12:05:38.281Z,98154.36
2018-07-04T12:08:05.539Z,98146.96
2018-07-04T12:10:32.765Z,98149.19
2018-07-04T12:12:59.976Z,98148.18
2018-07-04T12:15:27.220Z,98137.61
2018-07-04T12:17:54.428Z,98137.98
2018-07-04T12:20:21.706Z,98145.03
2018-07-04T12:22:48.906Z,98137.25
2018-07-04T12:25:16.139Z,98139.16
2018-07-04T12:27:43.382Z,98139.36
2018-07-04T12:30:10.590Z,98140.55
2018-07-04T12:32:37.814Z,98133.86
2018-07-04T12:35:05.037Z,98126.36
2018-07-04T12:37:32.352Z,98124.63
2018-07-04T12:39:59.535Z,98120.12
2018-07-04T12:42:26.893Z,98114.05
2018-07-04T12:44:54.144Z,98128.98
2018-07-04T12:47:21.411Z,98134.20
2018-07-04T12:49:48.632Z,98118.45
2018-07-04T12:52:15.863Z,98120.44
2018-07-04T12:54:48.417Z,98111.91
2018-07-04T12:57:27.835Z,98110.73
2018-07-04T13:00:07.453Z,98110.66
2018-07-04T13:02:46.948Z,98112.86
2018-07-04T13:05:26.621Z,98105.67
2018-07-04T13:08:06.118Z,98100.45
2018-07-04T13:10:45.787Z,98098.02
2018-07-04T13:13:25.291Z,98096.05
2018-07-04T13:16:05.060Z,98094.50
2018-07-04T13:18:44.668Z,98095.63
2018-07-04T13:21:24.255Z,98084.95
2018-07-04T13:24:03.887Z,98091.33
2018-07-04T13:26:43.424Z,98087.05
2018-07-04T13:29:23.046Z,98083.32
2018-07-04T13:32:02.726Z,98079.38
2018-07-04T13:34:42.338Z,98068.50
2018-07-04T13:37:21.994Z,98072.43
2018-07-04T13:40:01.658Z,98073.83
2018-07-04T13:42:41.145Z,98083.62
2018-07-04T13:45:20.699Z,98070.05
2018-07-04T13:48:00.335Z,98074.92
2018-07-04T13:50:39.974Z,98077.20
2018-07-04T13:53:19.656Z,98085.26
2018-07-04T13:55:59.094Z,98071.77
2018-07-04T13:58:38.687Z,98075.47
2018-07-04T14:01:18.319Z,98075.70
2018-07-04T14:03:58.000Z,98074.44
2018-07-04T14:06:37.556Z,98080.51
2018-07-04T14:09:17.691Z,98062.12
2018-07-04T14:11:57.420Z,98065.39
2018-07-04T14:14:36.935Z,98067.73
2018-07-04T14:17:16.707Z,98066.15
2018-07-04T14:19:56.388Z,98070.84
2018-07-04T14:22:35.976Z,98058.98
2018-07-04T14:25:15.546Z,98060.17
2018-07-04T14:27:55.164Z,98059.08
2018-07-04T14:30:34.807Z,98068.11
2018-07-04T14:33:14.380Z,98062.14
2018-07-04T14:35:53.995Z,98057.73
2018-07-04T14:38:33.603Z,98051.72
2018-07-04T14:41:13.155Z,98055.78
2018-07-04T14:43:52.813Z,98049.53
2018-07-04T14:46:32.369Z,98056.88
2018-07-04T14:49:11.991Z,98044.14
2018-07-04T14:51:51.694Z,98036.93
2018-07-04T14:54:31.287Z,98049.34
2018-07-04T14:57:11.232Z,98039.80
2018-07-04T14:59:50.731Z,98048.16
2018-07-04T15:02:30.687Z,98040.57
2018-07-04T15:05:10.207Z,98041.80
2018-07-04T15:07:49.916Z,98036.73
2018-07-04T15:10:29.395Z,98042.42
2018-07-04T15:13:09.103Z,98035.26
2018-07-04T15:15:48.761Z,98035.05
2018-07-04T15:18:31.066Z,98024.09
2018-07-04T15:21:10.595Z,98031.81
2018-07-04T15:23:50.287Z,98032.94
2018-07-04T15:26:29.936Z,98027.77
2018-07-04T15:29:09.573Z,98034.80
2018-07-04T15:31:49.095Z,98026.14
2018-07-04T15:34:28.498Z,98022.78
2018-07-04T15:37:08.348Z,98026.41
2018-07-04T15:39:47.925Z,98018.50
2018-07-04T15:42:27.627Z,98019.14
2018-07-04T15:45:07.285Z,98023.02
2018-07-04T15:47:47.127Z,98020.77
2018-07-04T15:50:26.647Z,98020.64
2018-07-04T15:53:06.316Z,98017.72
2018-07-04T15:55:45.862Z,98012.81
2018-07-04T15:58:25.365Z,98013.50
2018-07-04T16:01:05.061Z,98009.90
2018-07-04T16:03:44.651Z,98001.52
2018-07-04T16:06:24.321Z,98008.39
2018-07-04T16:09:05.258Z,98006.20
2018-07-04T16:11:44.840Z,98004.70
2018-07-04T16:14:24.323Z,97999.58
2018-07-04T16:17:04.024Z,98004.52
2018-07-04T16:19:43.574Z,97991.84
2018-07-04T16:22:23.155Z,98005.21
2018-07-04T16:25:02.723Z,97996.03
2018-07-04T16:27:42.379Z,97995.77
2018-07-04T16:30:22.092Z,97986.34
2018-07-04T16:33:02.112Z,97992.58
2018-07-04T16:35:41.972Z,97999.98
2018-07-04T16:38:21.556Z,97993.84
2018-07-04T16:41:01.167Z,98000.58
2018-07-04T16:43:40.733Z,97998.52
2018-07-04T16:46:20.363Z,97995.80
2018-07-04T16:48:59.970Z,97994.86
2018-07-04T16:51:39.556Z,98010.61
2018-07-04T16:54:19.179Z,98006.77
2018-07-04T16:56:58.800Z,98008.12
2018-07-04T16:59:38.171Z,98010.47
2018-07-04T17:02:17.736Z,98007.62
2018-07-04T17:04:57.491Z,98009.97
2018-07-04T17:07:37.220Z,98014.13
2018-07-04T17:10:16.743Z,98029.93
2018-07-04T17:12:56.400Z,98021.90
2018-07-04T17:15:35.952Z,98026.55
2018-07-04T17:18:15.486Z,98033.95
2018-07-04T17:20:55.113Z,98027.87
2018-07-04T17:23:34.692Z,98025.23
2018-07-04T17:26:14.906Z,98036.83
2018-07-04T17:28:54.487Z,98027.45
2018-07-04T17:31:34.267Z,98033.13
2018-07-04T17:34:13.805Z,98030.35
2018-07-04T17:36:53.409Z,98022.49
2018-07-04T17:39:33.087Z,98026.83
2018-07-04T17:42:12.728Z,98028.56
2018-07-04T17:44:52.343Z,98025.92
2018-07-04T17:47:31.884Z,98028.17
2018-07-04T17:50:11.540Z,97997.98
2018-07-04T17:52:51.203Z,98028.80
2018-07-04T17:55:30.657Z,98024.66
2018-07-04T17:58:10.204Z,98029.21
2018-07-04T18:46:34.691Z,98038.50
2018-07-04T18:49:14.339Z,98036.13
2018-07-04T18:51:54.010Z,98034.38
2018-07-04T18:54:33.641Z,98030.73
2018-07-04T18:57:13.242Z,98026.18
2018-07-04T18:59:52.919Z,98032.64
2018-07-04T19:02:32.411Z,98035.57
2018-07-04T19:05:12.022Z,98033.65
2018-07-04T19:07:51.491Z,98041.52
2018-07-04T19:10:31.194Z,98039.00
2018-07-04T19:13:10.644Z,98048.41
2018-07-04T19:15:50.404Z,98040.00
2018-07-04T19:18:29.768Z,98045.85
2018-07-04T19:21:09.343Z,98051.09
2018-07-04T19:23:48.846Z,98055.43
2018-07-04T19:26:28.495Z,98058.48
2018-07-04T19:29:07.942Z,98058.78
2018-07-04T19:31:47.650Z,98066.70
2018-07-04T19:34:27.122Z,98073.23
2018-07-04T19:37:07.347Z,98073.30
2018-07-04T19:39:46.855Z,98086.84
2018-07-04T19:42:26.688Z,98091.45
2018-07-04T19:45:06.987Z,98085.72
2018-07-04T19:47:46.430Z,98085.20
2018-07-04T19:50:26.620Z,98091.70
2018-07-04T19:53:06.122Z,98093.89
2018-07-04T19:55:45.785Z,98095.89
2018-07-04T19:58:25.449Z,98088.87
2018-07-04T20:01:04.935Z,98093.69
2018-07-04T20:03:44.434Z,98091.45
2018-07-04T20:06:24.055Z,98094.00
2018-07-04T20:09:03.976Z,98102.69
2018-07-04T20:11:43.596Z,98097.58
2018-07-04T20:14:23.131Z,98103.28
2018-07-04T20:17:02.996Z,98106.55
2018-07-04T20:19:42.496Z,98101.32
2018-07-04T20:22:22.035Z,98110.52
2018-07-04T20:25:01.876Z,98099.25
2018-07-04T20:27:41.359Z,98105.33
2018-07-04T20:30:20.835Z,98104.45
2018-07-04T20:33:00.424Z,98101.36
2018-07-04T20:35:40.281Z,98101.11
2018-07-04T20:38:19.794Z,98102.45
2018-07-04T20:40:59.808Z,98101.62
2018-07-04T20:43:39.364Z,98096.88
2018-07-04T20:46:19.352Z,98096.33
2018-07-04T20:48:58.952Z,98102.13
2018-07-04T20:51:38.606Z,98103.92
2018-07-04T20:54:18.120Z,98104.47
2018-07-04T20:56:57.588Z,98108.23
2018-07-04T20:59:37.208Z,98109.33
2018-07-04T21:02:16.771Z,98110.37
2018-07-04T21:04:56.393Z,98105.77
2018-07-04T21:07:36.162Z,98105.91
2018-07-04T21:10:15.728Z,98117.46
2018-07-04T21:12:55.716Z,98118.25
2018-07-04T21:15:35.176Z,98121.64
2018-07-04T21:18:14.812Z,98118.48
2018-07-04T21:20:54.427Z,98118.89
2018-07-04T21:23:33.959Z,98120.07
2018-07-04T21:26:13.487Z,98124.53
2018-07-04T21:28:53.234Z,98118.91
2018-07-04T21:31:32.743Z,98119.84
2018-07-04T21:34:12.430Z,98119.06
2018-07-04T21:36:51.936Z,98117.98
2018-07-04T21:39:31.359Z,98124.69
2018-07-04T21:42:10.970Z,98130.27
2018-07-04T21:44:50.582Z,98129.23
2018-07-04T21:47:30.183Z,98132.30
2018-07-04T21:50:09.876Z,98127.39
2018-07-04T21:52:49.502Z,98127.44
2018-07-04T21:55:29.026Z,98125.48
2018-07-04T21:58:08.520Z,98116.99
2018-07-04T22:00:48.039Z,98119.55
2018-07-04T22:03:27.740Z,98117.58
2018-07-04T22:06:07.188Z,98106.88
2018-07-04T22:08:46.884Z,98104.43
2018-07-04T22:11:26.452Z,98105.77
2018-07-04T22:14:05.949Z,98108.49
2018-07-04T22:16:45.879Z,98098.00
2018-07-04T22:19:25.482Z,98097.53
2018-07-04T22:22:05.091Z,98094.42
2018-07-04T22:24:45.124Z,98097.96
2018-07-04T22:27:24.667Z,98093.66
2018-07-04T22:30:04.134Z,98085.94
2018-07-04T22:32:43.779Z,98073.20
2018-07-04T22:35:23.304Z,98086.14
2018-07-04T22:38:02.847Z,98080.66
2018-07-04T22:40:42.296Z,98084.22
2018-07-04T22:43:21.688Z,98087.89
2018-07-04T22:46:01.592Z,98091.39
2018-07-04T22:48:40.989Z,98092.58
2018-07-04T22:51:20.588Z,98087.42
2018-07-04T22:54:00.099Z,98088.61
2018-07-04T22:56:39.973Z,98087.81
2018-07-04T22:59:19.673Z,98083.77
2018-07-04T23:01:59.436Z,98086.63
2018-07-04T23:04:38.918Z,98090.94
2018-07-04T23:07:18.678Z,98084.42
2018-07-04T23:09:58.088Z,98075.44
2018-07-04T23:12:37.596Z,98081.13
2018-07-04T23:15:17.049Z,98079.80
2018-07-04T23:17:56.500Z,98079.33
2018-07-04T23:20:36.001Z,98085.52
2018-07-04T23:23:15.651Z,98081.69
2018-07-04T23:25:55.343Z,98083.49
2018-07-04T23:28:35.001Z,98076.13
2018-07-04T23:31:14.651Z,98079.52
2018-07-04T23:33:54.231Z,98082.22
2018-07-04T23:36:33.959Z,98080.22
2018-07-04T23:39:13.435Z,98083.89
2018-07-04T23:41:53.255Z,98076.72
2018-07-04T23:44:32.987Z,98079.20
2018-07-04T23:47:12.698Z,98012.72
2018-07-04T23:49:52.190Z,98056.85
2018-07-04T23:52:31.846Z,98063.55
2018-07-04T23:55:11.380Z,98061.23
2018-07-04T23:57:50.889Z,98072.41
